Monday, September 24, 2018, 5:20 PM EDT
Back to Local

KMFV, Melfa / Accomack Airport

Location: Melfa, VA, United States Lat: 37.65
Local Time: 5:20 PM EDT (21:20 GMT) Lon: -75.767
Time Zone: US/Eastern Elev: 49 ft

Show me the last for .
Show Decoded

2018-09-24 16:55 METAR KMFV 242055Z AUTO 08012G19KT 7SM OVC012 22/20 A3026 RMK AO2 T02200203 =
2018-09-24 16:35 METAR KMFV 242035Z AUTO 08014G20KT 060V140 10SM OVC012 23/21 A3026 RMK AO2
                 T02250205 =
2018-09-24 16:15 METAR KMFV 242015Z AUTO 08014G23KT 10SM OVC012 23/21 A3025 RMK AO2 T02250206 =
2018-09-24 15:55 METAR KMFV 241955Z AUTO 08009G20KT 070V130 10SM OVC012 23/21 A3026 RMK AO2
                 T02250206 =
2018-09-24 15:35 METAR KMFV 241935Z AUTO 08011G17KT 10SM OVC012 22/21 A3026 RMK AO2 T02220206 =
2018-09-24 15:15 METAR KMFV 241915Z AUTO 08014G18KT 10SM OVC012 22/21 A3027 RMK AO2 T02210205 =
2018-09-24 14:55 METAR KMFV 241855Z AUTO 08013G17KT 10SM OVC012 22/21 A3027 RMK AO2 T02200205 =
2018-09-24 14:35 METAR KMFV 241835Z AUTO 08012G18KT 10SM OVC012 22/21 A3028 RMK AO2 T02180205 =
2018-09-24 14:15 METAR KMFV 241815Z AUTO 07010G18KT 7SM RA OVC012 22/20 A3028 RMK AO2 T02160204 =
2018-09-24 13:55 METAR KMFV 241755Z AUTO 07009KT 10SM RA OVC012 22/20 A3028 RMK AO2 6////
                 T02160203 10216 20207 =
2018-09-24 13:35 METAR KMFV 241735Z AUTO 07011G17KT 5SM RA OVC014 22/20 A3029 RMK AO2 T02150202 =
2018-09-24 13:15 METAR KMFV 241715Z AUTO 07011G19KT 10SM OVC014 22/20 A3029 RMK AO2 T02150201 =
2018-09-24 12:55 METAR KMFV 241655Z AUTO 07012G15KT 7SM OVC012 22/21 A3029 RMK AO2 P0002
                 T02150206 =
2018-09-24 12:35 METAR KMFV 241635Z AUTO 07010G19KT 7SM OVC009 21/21 A3029 RMK AO2 P0002
                 T02130206 =
2018-09-24 12:15 METAR KMFV 241615Z AUTO 07013G20KT 3SM DZ OVC009 21/21 A3029 RMK AO2 P0001
                 T02120206 =
2018-09-24 11:55 METAR KMFV 241555Z AUTO 07013G18KT 3SM RA OVC007 21/21 A3028 RMK AO2 T02130207
                 PNO =
2018-09-24 11:35 METAR KMFV 241535Z AUTO 07014G17KT 2SM DZ OVC009 21/21 A3028 RMK AO2 P0001
                 T02120206 =
2018-09-24 11:15 METAR KMFV 241515Z AUTO 08014G20KT 4SM -DZ BKN009 OVC014 21/21 A3028 RMK AO2
                 T02140206 =
2018-09-24 10:55 METAR KMFV 241455Z AUTO 07013G18KT 2 1/2SM DZ OVC007 21/21 A3028 RMK AO2 P0001
                 60001 T02120206 =
2018-09-24 10:35 METAR KMFV 241435Z AUTO 06010KT 4SM -DZ OVC007 21/21 A3028 RMK AO2 P0001
                 T02110205 =
2018-09-24 10:15 METAR KMFV 241415Z AUTO 06012G20KT 3SM RA OVC007 21/20 A3028 RMK AO2 T02110204 =
2018-09-24 09:55 METAR KMFV 241355Z AUTO 06012G16KT 7SM OVC011 21/20 A3028 RMK AO2 T02120202 =
2018-09-24 09:35 METAR KMFV 241335Z AUTO 07012G17KT 7SM OVC009 21/20 A3027 RMK AO2 T02120203 =
2018-09-24 09:15 METAR KMFV 241315Z AUTO 07013G16KT 5SM BR OVC009 21/20 A3026 RMK AO2 T02110203 =
2018-09-24 08:55 METAR KMFV 241255Z AUTO 06011KT 10SM OVC007 21/20 A3026 RMK AO2 T02100203 =
2018-09-24 08:35 METAR KMFV 241235Z AUTO 06013G20KT 7SM OVC007 21/20 A3025 RMK AO2 T02080202 =
2018-09-24 08:15 METAR KMFV 241215Z AUTO 06013G21KT 10SM OVC007 21/20 A3024 RMK AO2 T02070200 =
2018-09-24 07:55 METAR KMFV 241155Z AUTO 06016G21KT 5SM -DZ OVC007 21/20 A3024 RMK AO2 70004
                 T02100203 10217 20210 =
2018-09-24 07:35 METAR KMFV 241135Z AUTO 06013G17KT 5SM -DZ OVC007 21/21 A3022 RMK AO2 T02100205
                 =
2018-09-24 07:15 METAR KMFV 241115Z AUTO 06011KT 7SM -RA OVC007 21/21 A3022 RMK AO2 T02110205 =
2018-09-24 06:55 METAR KMFV 241055Z AUTO 06012G19KT 10SM OVC007 21/21 A3022 RMK AO2 T02120205 =
2018-09-24 06:35 METAR KMFV 241035Z AUTO 06011G16KT 10SM OVC007 21/21 A3021 RMK AO2 T02120205 =
2018-09-24 06:15 METAR KMFV 241015Z AUTO 06010KT 10SM OVC007 21/21 A3020 RMK AO2 T02120206 =
2018-09-24 05:55 METAR KMFV 240955Z AUTO 05010G15KT 7SM OVC007 21/21 A3019 RMK AO2 T02120206 =
2018-09-24 05:35 METAR KMFV 240935Z AUTO 05009G16KT 7SM OVC007 21/21 A3019 RMK AO2 T02120206 =
2018-09-24 05:15 METAR KMFV 240915Z AUTO 05011G18KT 10SM -RA OVC005 21/21 A3018 RMK AO2 T02130207
                 =
2018-09-24 04:55 METAR KMFV 240855Z AUTO 05012G15KT 10SM OVC005 21/21 A3018 RMK AO2 T02130208 =
2018-09-24 04:35 METAR KMFV 240835Z AUTO 05009KT 10SM OVC005 21/21 A3017 RMK AO2 T02120207 =
2018-09-24 04:15 METAR KMFV 240815Z AUTO 06008KT 10SM OVC005 21/21 A3017 RMK AO2 T02110206 =
2018-09-24 03:55 METAR KMFV 240755Z AUTO 06006KT 10SM OVC005 21/21 A3016 RMK AO2 T02120207 =
2018-09-24 03:35 METAR KMFV 240735Z AUTO 05005KT 10SM OVC005 21/21 A3016 RMK AO2 T02120206 =
2018-09-24 03:15 METAR KMFV 240715Z AUTO 03004KT 10SM OVC005 21/21 A3016 RMK AO2 T02130207 =
2018-09-24 02:55 METAR KMFV 240655Z AUTO 05005KT 10SM OVC005 22/21 A3016 RMK AO2 T02150209 =
2018-09-24 02:35 METAR KMFV 240635Z AUTO 05005KT 10SM OVC005 22/21 A3016 RMK AO2 T02160211 =
2018-09-24 02:15 METAR KMFV 240615Z AUTO 05007KT 10SM SCT005 BKN028 OVC042 22/21 A3015 RMK AO2
                 T02170211 =
2018-09-24 01:55 METAR KMFV 240555Z AUTO 05007KT 010V070 10SM SCT007 SCT021 OVC026 22/21 A3016
                 RMK AO2 60004 T02160210 10225 20212 =
2018-09-24 01:35 METAR KMFV 240535Z AUTO 05007KT 10SM SCT007 BKN022 OVC080 22/21 A3016 RMK AO2
                 T02150210 =
2018-09-24 01:15 METAR KMFV 240515Z AUTO 06010KT 10SM SCT005 OVC019 22/21 A3016 RMK AO2 T02150208
                 =
2018-09-24 00:55 METAR KMFV 240455Z AUTO 06007KT 10SM SCT005 OVC019 21/21 A3016 RMK AO2 T02130207
                 402300207 =
2018-09-24 00:35 METAR KMFV 240435Z AUTO 05007KT 10SM SCT005 BKN021 OVC029 21/21 A3016 RMK AO2
                 T02130207 =
2018-09-24 00:15 METAR KMFV 240415Z AUTO 04006KT 10SM SCT007 BKN023 OVC029 21/21 A3017 RMK AO2
                 T02130208 =
2018-09-23 23:55 METAR KMFV 240355Z AUTO 08004KT 10SM SCT007 BKN015 OVC034 22/21 A3017 RMK AO2
                 T02150208 =
2018-09-23 23:35 METAR KMFV 240335Z AUTO 05006KT 10SM SCT007 BKN016 OVC025 22/21 A3017 RMK AO2
                 T02160210 =
2018-09-23 23:15 METAR KMFV 240315Z AUTO 04005KT 10SM OVC009 22/22 A3016 RMK AO2 T02220217 =
2018-09-23 22:55 METAR KMFV 240255Z AUTO 07006KT 10SM OVC009 22/22 A3016 RMK AO2 60004 T02240219
                 =
2018-09-23 22:35 METAR KMFV 240235Z AUTO 07007KT 10SM BKN009 BKN018 OVC070 23/22 A3016 RMK AO2
                 T02250220 =
2018-09-23 22:15 METAR KMFV 240215Z AUTO 07005KT 10SM SCT009 SCT021 OVC070 23/22 A3016 RMK AO2
                 T02250218 =
2018-09-23 21:55 METAR KMFV 240155Z AUTO 08005KT 7SM RA SCT006 BKN025 OVC080 22/22 A3015 RMK AO2
                 T02230218 =
2018-09-23 21:35 METAR KMFV 240135Z AUTO 07006KT 10SM BKN006 BKN027 OVC080 22/22 A3015 RMK AO2
                 T02230218 =
2018-09-23 21:15 METAR KMFV 240115Z AUTO 08006KT 10SM OVC006 22/22 A3015 RMK AO2 T02230218 =
2018-09-23 20:55 METAR KMFV 240055Z AUTO 08007KT 7SM OVC006 22/22 A3014 RMK AO2 P0004 T02230218 =
2018-09-23 20:35 METAR KMFV 240035Z AUTO 09005KT 5SM RA BKN006 OVC010 22/22 A3015 RMK AO2 P0004
                 T02230218 =
2018-09-23 20:15 METAR KMFV 240015Z AUTO 08006KT 5SM DZ BKN010 BKN022 OVC049 23/22 A3014 RMK AO2
                 P0001 T02250217 =
2018-09-23 19:55 METAR KMFV 232355Z AUTO 07008KT 7SM DZ SCT020 SCT029 OVC049 23/22 A3013 RMK AO2
                 T02250216 10230 20219 =
2018-09-23 19:35 METAR KMFV 232335Z AUTO 08005KT 10SM -DZ BKN010 BKN021 OVC049 23/22 A3013 RMK
                 AO2 T02260217 =
2018-09-23 19:15 METAR KMFV 232315Z AUTO 08005KT 10SM RA OVC010 23/22 A3013 RMK AO2 T02260216 =
2018-09-23 18:55 METAR KMFV 232255Z AUTO 07007KT 10SM -DZ OVC010 23/22 A3012 RMK AO2 T02270215 =
2018-09-23 18:35 METAR KMFV 232235Z AUTO 08006KT 10SM OVC010 23/21 A3012 RMK AO2 T02280211 =
2018-09-23 18:15 METAR KMFV 232215Z AUTO 08007KT 10SM OVC012 23/21 A3012 RMK AO2 T02300210 =
2018-09-23 17:55 METAR KMFV 232155Z AUTO 07008KT 10SM BKN014 OVC023 23/21 A3012 RMK AO2 T02300208
                 =
2018-09-23 17:35 METAR KMFV 232135Z AUTO 07011KT 10SM BKN014 OVC021 23/21 A3012 RMK AO2 T02300205
                 =

Support USWX by starting your Amazon purchase here.